createdAt,value
2023-04-21T00:00:53.717Z,13.27
2023-04-21T00:03:22.570Z,15.10
2023-04-21T00:05:50.783Z,14.17
2023-04-21T00:08:18.194Z,14.53
2023-04-21T00:10:45.211Z,14.33
2023-04-21T00:13:11.644Z,14.50
2023-04-21T00:15:38.233Z,14.20
2023-04-21T00:18:04.895Z,16.47
2023-04-21T00:20:31.530Z,17.17
2023-04-21T00:22:59.625Z,17.40
2023-04-21T00:25:26.174Z,16.27
2023-04-21T00:27:52.613Z,15.33
2023-04-21T00:30:19.224Z,15.90
2023-04-21T00:32:45.678Z,15.80
2023-04-21T00:35:12.208Z,14.40
2023-04-21T00:37:38.902Z,13.37
2023-04-21T00:40:06.014Z,15.97
2023-04-21T00:42:32.603Z,15.77
2023-04-21T00:44:59.033Z,14.70
2023-04-21T00:47:25.582Z,15.27
2023-04-21T00:49:52.242Z,16.10
2023-04-21T00:52:19.327Z,15.47
2023-04-21T00:54:46.333Z,14.50
2023-04-21T00:57:13.126Z,14.70
2023-04-21T00:59:39.576Z,15.50
2023-04-21T01:02:06.076Z,15.27
2023-04-21T01:04:39.487Z,16.60
2023-04-21T01:07:07.543Z,14.90
2023-04-21T01:09:34.598Z,16.67
2023-04-21T01:12:03.436Z,15.63
2023-04-21T01:14:30.446Z,17.43
2023-04-21T01:16:57.714Z,16.80
2023-04-21T01:19:25.173Z,17.20
2023-04-21T01:21:53.742Z,17.07
2023-04-21T01:24:20.314Z,18.80
2023-04-21T01:26:49.451Z,17.57
2023-04-21T01:29:17.250Z,17.67
2023-04-21T01:31:44.055Z,17.67
2023-04-21T01:34:10.723Z,18.30
2023-04-21T01:36:37.315Z,17.40
2023-04-21T01:39:04.609Z,16.80
2023-04-21T01:41:31.155Z,15.30
2023-04-21T01:43:57.627Z,16.40
2023-04-21T01:46:24.165Z,16.60
2023-04-21T01:48:51.035Z,15.97
2023-04-21T01:51:17.465Z,16.97
2023-04-21T01:53:43.872Z,16.00
2023-04-21T01:56:14.207Z,16.10
2023-04-21T01:58:40.622Z,15.80
2023-04-21T02:01:07.093Z,17.17
2023-04-21T02:03:33.749Z,15.47
2023-04-21T02:06:00.539Z,16.07
2023-04-21T02:08:26.955Z,16.63
2023-04-21T02:10:53.382Z,17.50
2023-04-21T02:13:19.769Z,14.70
2023-04-21T02:15:46.328Z,16.90
2023-04-21T02:18:13.390Z,16.37
2023-04-21T02:20:39.906Z,15.50
2023-04-21T02:23:06.364Z,16.20
2023-04-21T02:25:32.954Z,15.20
2023-04-21T02:27:59.787Z,16.97
2023-04-21T02:30:26.333Z,16.23
2023-04-21T02:32:52.878Z,16.63
2023-04-21T02:35:19.491Z,16.43
2023-04-21T02:37:46.016Z,16.80
2023-04-21T02:40:12.763Z,16.57
2023-04-21T02:42:39.211Z,16.50
2023-04-21T02:45:06.322Z,14.87
2023-04-21T02:47:32.833Z,15.40
2023-04-21T02:49:59.286Z,17.10
2023-04-21T02:52:25.764Z,17.27
2023-04-21T02:54:52.301Z,16.07
2023-04-21T02:57:18.655Z,14.93
2023-04-21T02:59:45.079Z,16.30
2023-04-21T03:02:11.572Z,16.67
2023-04-21T03:04:38.486Z,17.83
2023-04-21T03:07:05.059Z,16.70
2023-04-21T03:09:31.517Z,15.67
2023-04-21T03:11:57.883Z,17.20
2023-04-21T03:14:24.303Z,17.03
2023-04-21T03:16:50.847Z,17.10
2023-04-21T03:19:17.555Z,15.87
2023-04-21T03:21:44.213Z,17.67
2023-04-21T03:24:10.737Z,17.83
2023-04-21T03:26:40.330Z,18.63
2023-04-21T03:29:07.169Z,18.70
2023-04-21T03:31:33.726Z,17.93
2023-04-21T03:34:00.181Z,19.40
2023-04-21T03:36:26.612Z,18.30
2023-04-21T03:38:53.141Z,19.23
2023-04-21T03:41:19.592Z,18.67
2023-04-21T03:43:46.091Z,18.03
2023-04-21T03:46:22.419Z,17.60
2023-04-21T03:48:49.094Z,18.50
2023-04-21T03:51:15.803Z,18.20
2023-04-21T03:53:42.384Z,19.27
2023-04-21T03:56:08.929Z,18.33
2023-04-21T03:58:36.378Z,18.77
2023-04-21T04:01:05.493Z,19.80
2023-04-21T04:03:32.135Z,19.30
2023-04-21T04:05:58.658Z,19.87
2023-04-21T04:08:25.212Z,22.27
2023-04-21T04:10:51.635Z,21.40
2023-04-21T04:13:18.379Z,20.00
2023-04-21T04:15:44.836Z,21.97
2023-04-21T04:18:11.404Z,20.10
2023-04-21T04:20:37.795Z,21.53
2023-04-21T04:23:04.191Z,21.17
2023-04-21T04:25:31.009Z,21.70
2023-04-21T04:27:57.484Z,20.73
2023-04-21T04:30:27.821Z,21.80
2023-04-21T04:32:54.501Z,20.87
2023-04-21T04:35:21.271Z,20.03
2023-04-21T04:37:48.634Z,22.03
2023-04-21T04:40:15.731Z,19.70
2023-04-21T04:42:42.860Z,20.37
2023-04-21T04:45:09.494Z,21.17
2023-04-21T04:47:35.969Z,20.57
2023-04-21T04:50:02.678Z,20.97
2023-04-21T04:52:29.414Z,21.10
2023-04-21T04:54:55.814Z,20.70
2023-04-21T04:57:22.356Z,21.30
2023-04-21T04:59:48.832Z,21.40
2023-04-21T05:02:15.777Z,22.10
2023-04-21T05:04:42.404Z,21.43
2023-04-21T05:07:08.910Z,22.03
2023-04-21T05:09:35.298Z,20.53
2023-04-21T05:12:02.347Z,21.97
2023-04-21T05:14:28.869Z,19.30
2023-04-21T05:16:55.396Z,22.20
2023-04-21T05:19:21.904Z,20.67
2023-04-21T05:21:48.339Z,19.27
2023-04-21T05:24:14.902Z,19.60
2023-04-21T05:26:41.313Z,20.80
2023-04-21T05:29:07.770Z,19.97
2023-04-21T05:31:34.840Z,20.67
2023-04-21T05:34:01.339Z,19.80
2023-04-21T05:36:27.972Z,19.00
2023-04-21T05:38:55.048Z,19.43
2023-04-21T05:41:22.558Z,18.47
2023-04-21T05:43:49.194Z,18.07
2023-04-21T05:46:15.713Z,18.03
2023-04-21T05:48:42.145Z,18.03
2023-04-21T05:51:11.629Z,18.67
2023-04-21T05:53:42.710Z,19.10
2023-04-21T05:56:10.124Z,18.60
2023-04-21T05:58:37.025Z,18.60
2023-04-21T06:01:03.834Z,19.60
2023-04-21T06:03:33.967Z,19.03
2023-04-21T06:06:02.010Z,18.97
2023-04-21T06:08:28.523Z,20.73
2023-04-21T06:10:55.102Z,19.30
2023-04-21T06:13:21.603Z,20.23
2023-04-21T06:15:48.228Z,21.50
2023-04-21T06:18:24.118Z,20.40
2023-04-21T06:20:51.585Z,20.47
2023-04-21T06:23:18.007Z,20.57
2023-04-21T06:25:44.413Z,21.10
2023-04-21T06:28:10.966Z,21.53
2023-04-21T06:30:37.386Z,20.53
2023-04-21T06:33:04.574Z,20.50
2023-04-21T06:35:31.229Z,21.37
2023-04-21T06:37:57.651Z,21.83
2023-04-21T06:40:24.089Z,22.77
2023-04-21T06:42:50.603Z,22.17
2023-04-21T06:45:17.085Z,22.87
2023-04-21T06:47:43.627Z,25.10
2023-04-21T06:50:10.495Z,24.47
2023-04-21T06:52:36.883Z,23.70
2023-04-21T06:55:03.478Z,23.37
2023-04-21T06:57:29.935Z,20.93
2023-04-21T06:59:56.437Z,21.67
2023-04-21T07:02:22.941Z,25.27
2023-04-21T07:04:49.606Z,24.97
2023-04-21T07:07:16.160Z,22.90
2023-04-21T07:09:42.598Z,21.90
2023-04-21T07:12:09.091Z,23.30
2023-04-21T07:14:35.611Z,23.37
2023-04-21T07:17:02.213Z,22.90
2023-04-21T07:19:28.660Z,23.30
2023-04-21T07:21:55.173Z,22.57
2023-04-21T07:24:21.641Z,24.70
2023-04-21T07:26:48.058Z,21.97
2023-04-21T07:29:14.587Z,21.20
2023-04-21T07:31:41.114Z,20.80
2023-04-21T07:34:07.691Z,21.07
2023-04-21T07:36:34.248Z,18.67
2023-04-21T07:39:00.850Z,19.30
2023-04-21T07:41:29.292Z,18.97
2023-04-21T07:43:55.752Z,18.40
2023-04-21T07:46:24.265Z,19.13
2023-04-21T07:48:50.875Z,18.50
2023-04-21T07:51:18.032Z,18.20
2023-04-21T07:53:44.505Z,18.30
2023-04-21T07:56:12.991Z,18.63
2023-04-21T07:58:39.498Z,16.77
2023-04-21T08:01:05.977Z,18.90
2023-04-21T08:03:32.584Z,18.70
2023-04-21T08:05:59.279Z,18.07
2023-04-21T08:08:25.881Z,18.63
2023-04-21T08:10:52.330Z,19.23
2023-04-21T08:13:20.387Z,18.43
2023-04-21T08:15:46.968Z,18.70
2023-04-21T08:18:16.723Z,18.80
2023-04-21T08:20:43.152Z,19.53
2023-04-21T08:23:09.633Z,19.10
2023-04-21T08:25:36.267Z,20.17
2023-04-21T08:28:02.669Z,17.47
2023-04-21T08:30:29.204Z,17.90
2023-04-21T08:32:55.961Z,19.20
2023-04-21T08:35:22.391Z,18.20
2023-04-21T08:37:49.406Z,17.37
2023-04-21T08:40:17.061Z,17.27
2023-04-21T08:42:43.598Z,17.80
2023-04-21T08:45:10.324Z,17.83
2023-04-21T08:47:40.314Z,17.63
2023-04-21T08:50:11.903Z,16.43
2023-04-21T08:52:38.553Z,17.27
2023-04-21T08:55:07.472Z,16.57
2023-04-21T08:57:34.221Z,16.50
2023-04-21T09:00:00.657Z,15.90
2023-04-21T09:02:27.201Z,16.63
2023-04-21T09:04:55.840Z,16.87
2023-04-21T09:07:36.007Z,16.83
2023-04-21T09:10:03.278Z,16.30
2023-04-21T09:12:30.119Z,16.27
2023-04-21T09:15:00.964Z,15.87
2023-04-21T09:17:33.932Z,16.23
2023-04-21T09:20:14.328Z,15.90
2023-04-21T09:22:40.858Z,14.80
2023-04-21T09:25:07.631Z,15.70
2023-04-21T09:27:37.916Z,16.63
2023-04-21T09:30:07.151Z,14.97
2023-04-21T09:32:40.837Z,16.13
2023-04-21T09:35:11.460Z,15.07
2023-04-21T09:37:39.332Z,14.20
2023-04-21T09:40:06.578Z,15.40
2023-04-21T09:42:37.836Z,15.03
2023-04-21T09:47:43.003Z,13.93
2023-04-21T09:50:13.067Z,15.47
2023-04-21T09:52:40.206Z,13.90
2023-04-21T09:55:16.354Z,15.00
2023-04-21T09:57:44.814Z,14.70
2023-04-21T10:00:14.559Z,13.83
2023-04-21T10:02:47.993Z,15.17
2023-04-21T10:05:14.587Z,14.10
2023-04-21T10:07:41.078Z,14.47
2023-04-21T10:10:16.569Z,13.57
2023-04-21T10:12:44.365Z,14.73
2023-04-21T10:15:29.815Z,13.90
2023-04-21T10:18:16.036Z,13.33
2023-04-21T10:21:07.997Z,14.10
2023-04-21T10:23:45.673Z,13.83
2023-04-21T10:26:13.289Z,14.07
2023-04-21T10:28:40.076Z,15.27
2023-04-21T10:31:36.017Z,13.70
2023-04-21T10:34:08.703Z,13.10
2023-04-21T10:36:43.443Z,12.90
2023-04-21T10:39:12.941Z,13.10
2023-04-21T10:41:39.417Z,13.23
2023-04-21T10:44:13.080Z,12.57
2023-04-21T10:46:41.366Z,11.00
2023-04-21T10:49:21.249Z,12.10
2023-04-21T10:51:59.924Z,11.67
2023-04-21T10:54:27.815Z,11.00
2023-04-21T10:56:59.151Z,10.70
2023-04-21T10:59:27.229Z,11.00
2023-04-21T11:01:55.089Z,10.73
2023-04-21T11:04:23.156Z,10.50
2023-04-21T11:07:10.376Z,10.30
2023-04-21T11:09:38.373Z,10.03
2023-04-21T11:12:10.200Z,10.37
2023-04-21T11:14:38.847Z,10.10
2023-04-21T11:17:10.989Z,10.27
2023-04-21T11:19:39.259Z,9.30
2023-04-21T11:22:05.805Z,8.73
2023-04-21T11:24:33.073Z,9.43
2023-04-21T11:27:02.645Z,8.40
2023-04-21T11:29:29.707Z,7.63
2023-04-21T11:31:56.419Z,7.97
2023-04-21T11:34:25.014Z,7.20
2023-04-21T11:36:52.584Z,8.67
2023-04-21T11:39:22.465Z,7.80
2023-04-21T11:41:50.845Z,8.23
2023-04-21T11:44:32.671Z,7.13
2023-04-21T11:46:59.212Z,9.00
2023-04-21T11:49:29.433Z,7.00
2023-04-21T11:51:56.576Z,6.87
2023-04-21T11:54:24.400Z,6.50
2023-04-21T11:56:52.180Z,6.30
2023-04-21T11:59:25.758Z,6.60
2023-04-21T12:01:53.987Z,6.53
2023-04-21T12:04:25.119Z,6.23
2023-04-21T12:07:02.863Z,5.77
2023-04-21T12:09:29.992Z,4.73
2023-04-21T12:11:58.918Z,4.30
2023-04-21T12:14:26.991Z,4.70
2023-04-21T12:16:56.038Z,4.63
2023-04-21T12:19:34.984Z,5.20
2023-04-21T12:22:01.678Z,5.40
2023-04-21T12:24:28.177Z,5.20
2023-04-21T12:26:54.603Z,5.13
2023-04-21T12:29:21.236Z,5.07
2023-04-21T12:31:47.728Z,5.67
2023-04-21T12:34:14.384Z,5.97
2023-04-21T12:36:40.852Z,5.97
2023-04-21T12:39:07.381Z,6.00
2023-04-21T12:41:34.713Z,6.20
2023-04-21T12:44:01.468Z,6.00
2023-04-21T12:46:28.659Z,5.97
2023-04-21T12:48:56.083Z,5.80
2023-04-21T12:51:22.597Z,5.80
2023-04-21T12:53:49.885Z,6.00
2023-04-21T12:56:16.746Z,6.07
2023-04-21T12:58:43.340Z,6.17
2023-04-21T13:01:09.914Z,6.10
2023-04-21T13:03:36.589Z,6.53
2023-04-21T13:06:03.209Z,6.40
2023-04-21T13:08:29.693Z,6.03
2023-04-21T13:10:56.172Z,6.53
2023-04-21T13:13:22.809Z,5.57
2023-04-21T13:15:49.226Z,5.80
2023-04-21T13:18:15.725Z,7.00
2023-04-21T13:20:42.106Z,6.80
2023-04-21T13:23:08.828Z,6.80
2023-04-21T13:25:35.380Z,6.93
2023-04-21T13:28:05.774Z,7.13
2023-04-21T13:30:32.242Z,7.10
2023-04-21T13:32:58.716Z,7.60
2023-04-21T13:35:25.535Z,7.10
2023-04-21T13:37:52.108Z,8.20
2023-04-21T13:40:18.549Z,8.00
2023-04-21T13:42:45.020Z,9.60
2023-04-21T13:45:11.979Z,9.70
2023-04-21T13:47:38.708Z,9.60
2023-04-21T13:50:05.933Z,9.93
2023-04-21T13:52:34.044Z,9.13
2023-04-21T13:55:00.558Z,9.47
2023-04-21T13:57:27.160Z,8.83
2023-04-21T13:59:54.230Z,7.67
2023-04-21T14:02:23.559Z,6.97
2023-04-21T14:04:50.867Z,7.23
2023-04-21T14:07:19.406Z,7.80
2023-04-21T14:09:46.444Z,8.40
2023-04-21T14:12:12.944Z,7.50
2023-04-21T14:14:39.509Z,7.50
2023-04-21T14:17:07.002Z,7.40
2023-04-21T14:19:34.365Z,7.10
2023-04-21T14:22:01.070Z,6.77
2023-04-21T14:24:32.520Z,6.37
2023-04-21T14:26:59.321Z,6.57
2023-04-21T14:29:25.865Z,6.23
2023-04-21T14:31:53.922Z,6.50
2023-04-21T14:34:20.420Z,6.60
2023-04-21T14:36:49.932Z,6.20
2023-04-21T14:39:16.917Z,6.43
2023-04-21T14:41:43.424Z,6.70
2023-04-21T14:44:09.924Z,6.07
2023-04-21T14:46:36.903Z,5.50
2023-04-21T14:49:04.422Z,5.40
2023-04-21T14:51:31.977Z,6.10
2023-04-21T14:53:58.573Z,5.37
2023-04-21T14:56:25.087Z,5.47
2023-04-21T14:58:51.609Z,6.10
2023-04-21T15:01:18.118Z,6.27
2023-04-21T15:03:44.707Z,6.10
2023-04-21T15:06:11.262Z,5.00
2023-04-21T15:08:37.810Z,5.90
2023-04-21T15:11:05.294Z,4.90
2023-04-21T15:13:32.724Z,5.03
2023-04-21T15:15:59.156Z,5.13
2023-04-21T15:18:25.790Z,6.73
2023-04-21T15:20:52.204Z,6.23
2023-04-21T15:23:18.716Z,6.07
2023-04-21T15:25:45.358Z,6.90
2023-04-21T15:28:12.998Z,5.70
2023-04-21T15:30:39.490Z,5.80
2023-04-21T15:33:06.023Z,5.63
2023-04-21T15:35:32.481Z,6.10
2023-04-21T15:37:58.890Z,6.23
2023-04-21T15:40:25.630Z,5.60
2023-04-21T15:42:52.206Z,5.80
2023-04-21T15:45:18.683Z,5.80
2023-04-21T15:47:45.409Z,5.50
2023-04-21T15:50:12.267Z,5.63
2023-04-21T15:52:42.558Z,5.37
2023-04-21T15:55:11.721Z,5.37
2023-04-21T15:57:38.583Z,4.80
2023-04-21T16:00:05.944Z,5.80
2023-04-21T16:02:32.686Z,4.97
2023-04-21T16:04:59.436Z,5.40
2023-04-21T16:07:26.713Z,6.33
2023-04-21T16:09:53.155Z,5.23
2023-04-21T16:12:19.906Z,6.00
2023-04-21T16:14:55.668Z,5.80
2023-04-21T16:17:27.649Z,5.93
2023-04-21T16:19:54.419Z,5.40
2023-04-21T16:22:20.954Z,4.80
2023-04-21T16:24:48.466Z,5.50
2023-04-21T16:27:15.062Z,5.87
2023-04-21T16:29:41.562Z,6.00
2023-04-21T16:32:08.243Z,6.13
2023-04-21T16:34:34.798Z,9.10
2023-04-21T16:37:01.327Z,7.00
2023-04-21T16:39:27.823Z,5.27
2023-04-21T16:41:54.328Z,4.57
2023-04-21T16:44:21.071Z,4.93
2023-04-21T16:46:47.612Z,5.07
2023-04-21T16:49:14.136Z,5.20
2023-04-21T16:51:44.580Z,5.27
2023-04-21T16:54:11.856Z,5.20
2023-04-21T16:56:38.772Z,5.33
2023-04-21T16:59:06.679Z,5.40
2023-04-21T17:01:33.253Z,5.53
2023-04-21T17:04:00.173Z,4.93
2023-04-21T17:06:26.797Z,4.93
2023-04-21T17:08:59.453Z,5.33
2023-04-21T17:11:27.560Z,5.70
2023-04-21T17:13:56.478Z,5.27
2023-04-21T17:16:23.024Z,5.43
2023-04-21T17:18:49.754Z,5.13
2023-04-21T17:21:16.224Z,5.07
2023-04-21T17:23:42.833Z,5.57
2023-04-21T17:26:12.293Z,5.30
2023-04-21T17:28:39.481Z,6.47
2023-04-21T17:31:15.052Z,5.37
2023-04-21T17:33:43.291Z,5.40
2023-04-21T17:36:09.780Z,5.77
2023-04-21T17:38:36.285Z,6.07
2023-04-21T17:41:04.536Z,5.40
2023-04-21T17:43:31.020Z,6.40
2023-04-21T17:45:57.620Z,5.80
2023-04-21T17:48:24.235Z,5.80
2023-04-21T17:50:51.153Z,6.27
2023-04-21T17:53:17.992Z,6.10
2023-04-21T17:55:44.730Z,5.40
2023-04-21T17:58:12.646Z,5.97
2023-04-21T18:00:39.322Z,5.67
2023-04-21T18:03:05.969Z,6.27
2023-04-21T18:05:32.754Z,6.10
2023-04-21T18:07:59.290Z,6.60
2023-04-21T18:10:28.264Z,5.70
2023-04-21T18:12:55.968Z,6.03
2023-04-21T18:15:22.454Z,4.53
2023-04-21T18:17:48.954Z,4.33
2023-04-21T18:20:15.565Z,4.37
2023-04-21T18:22:43.639Z,4.70
2023-04-21T18:25:11.747Z,4.77
2023-04-21T18:27:39.370Z,4.33
2023-04-21T18:30:06.899Z,4.30
2023-04-21T18:32:35.909Z,4.23
2023-04-21T18:35:03.708Z,3.70
2023-04-21T18:37:30.442Z,4.50
2023-04-21T18:39:57.605Z,6.77
2023-04-21T18:42:26.182Z,5.30
2023-04-21T18:44:56.222Z,4.53
2023-04-21T18:47:24.177Z,3.90
2023-04-21T18:49:51.544Z,2.80
2023-04-21T18:52:18.117Z,3.30
2023-04-21T18:54:44.529Z,3.00
2023-04-21T18:57:11.555Z,3.43
2023-04-21T18:59:38.005Z,2.80
2023-04-21T19:02:06.039Z,2.93
2023-04-21T19:04:32.906Z,2.40
2023-04-21T19:06:59.404Z,2.20
2023-04-21T19:09:27.188Z,2.30
2023-04-21T19:11:53.730Z,2.40
2023-04-21T19:14:20.162Z,2.40
2023-04-21T19:16:48.680Z,2.70
2023-04-21T19:19:15.578Z,2.67
2023-04-21T19:21:42.010Z,2.70
2023-04-21T19:24:08.440Z,3.67
2023-04-21T19:26:34.901Z,3.87
2023-04-21T19:29:01.332Z,4.13
2023-04-21T19:31:27.849Z,4.50
2023-04-21T19:33:54.303Z,4.83
2023-04-21T19:36:21.452Z,5.13
2023-04-21T19:38:47.993Z,4.37
2023-04-21T19:41:14.484Z,4.13
2023-04-21T19:43:41.081Z,3.97
2023-04-21T19:46:07.982Z,4.30
2023-04-21T19:48:34.627Z,3.40
2023-04-21T19:51:01.036Z,4.83
2023-04-21T19:53:27.515Z,5.00
2023-04-21T19:55:54.253Z,6.33
2023-04-21T19:58:36.309Z,6.43
2023-04-21T20:01:06.114Z,6.60
2023-04-21T20:03:33.308Z,5.53
2023-04-21T20:06:01.611Z,4.70
2023-04-21T20:08:29.068Z,4.60
2023-04-21T20:10:55.640Z,4.50
2023-04-21T20:13:22.037Z,4.53
2023-04-21T20:15:48.601Z,4.60
2023-04-21T20:18:15.253Z,4.73
2023-04-21T20:20:41.822Z,4.60
2023-04-21T20:23:08.284Z,5.17
2023-04-21T20:25:34.747Z,5.27
2023-04-21T20:28:01.237Z,4.40
2023-04-21T20:30:27.707Z,5.10
2023-04-21T20:32:54.305Z,4.63
2023-04-21T20:35:20.887Z,5.23
2023-04-21T20:37:47.919Z,5.20
2023-04-21T20:40:14.789Z,5.83
2023-04-21T20:42:44.878Z,5.10
2023-04-21T20:45:11.523Z,4.63
2023-04-21T20:47:38.331Z,4.50
2023-04-21T20:50:05.447Z,4.90
2023-04-21T20:52:32.036Z,5.30
2023-04-21T20:54:58.502Z,3.47
2023-04-21T20:57:26.910Z,4.47
2023-04-21T20:59:53.382Z,5.00
2023-04-21T21:02:19.888Z,4.13
2023-04-21T21:04:47.616Z,4.87
2023-04-21T21:07:14.746Z,5.90
2023-04-21T21:09:41.369Z,5.53
2023-04-21T21:12:07.957Z,6.00
2023-04-21T21:14:34.579Z,5.10
2023-04-21T21:17:01.491Z,5.00
2023-04-21T21:19:28.050Z,4.97
2023-04-21T21:21:54.467Z,4.63
2023-04-21T21:24:20.932Z,5.03
2023-04-21T21:26:47.444Z,5.40
2023-04-21T21:29:13.876Z,5.00
2023-04-21T21:31:40.346Z,4.83
2023-04-21T21:34:06.837Z,6.60
2023-04-21T21:36:33.382Z,4.87
2023-04-21T21:38:59.825Z,5.27
2023-04-21T21:41:26.275Z,5.30
2023-04-21T21:43:52.690Z,4.70
2023-04-21T21:46:19.597Z,5.07
2023-04-21T21:48:46.399Z,4.90
2023-04-21T21:51:12.898Z,5.10
2023-04-21T21:53:39.437Z,4.53
2023-04-21T21:56:06.199Z,4.40
2023-04-21T21:58:32.948Z,3.90
2023-04-21T22:00:59.535Z,4.00
2023-04-21T22:03:26.273Z,3.73
2023-04-21T22:05:52.820Z,4.43
2023-04-21T22:08:19.294Z,4.70
2023-04-21T22:10:46.021Z,4.43
2023-04-21T22:13:12.574Z,3.97
2023-04-21T22:15:39.106Z,4.20
2023-04-21T22:18:07.129Z,3.57
2023-04-21T22:20:33.816Z,3.50
2023-04-21T22:23:00.382Z,4.00
2023-04-21T22:25:27.186Z,3.40
2023-04-21T22:27:57.203Z,3.40
2023-04-21T22:30:23.636Z,3.67
2023-04-21T22:32:50.149Z,3.63
2023-04-21T22:35:16.808Z,3.67
2023-04-21T22:37:43.193Z,2.83
2023-04-21T22:40:10.031Z,3.10
2023-04-21T22:42:36.916Z,3.30
2023-04-21T22:45:05.243Z,3.10
2023-04-21T22:47:33.428Z,3.40
2023-04-21T22:50:00.169Z,3.60
2023-04-21T22:52:27.044Z,3.33
2023-04-21T22:54:54.020Z,3.13
2023-04-21T22:57:21.604Z,3.03
2023-04-21T22:59:48.027Z,3.10
2023-04-21T23:02:14.541Z,2.90
2023-04-21T23:04:41.263Z,3.40
2023-04-21T23:07:07.817Z,3.80
2023-04-21T23:09:34.346Z,3.30
2023-04-21T23:12:01.467Z,3.20
2023-04-21T23:14:27.983Z,3.50
2023-04-21T23:16:54.582Z,3.63
2023-04-21T23:19:21.049Z,3.13
2023-04-21T23:21:47.612Z,3.30
2023-04-21T23:24:14.760Z,3.30
2023-04-21T23:26:41.180Z,3.30
2023-04-21T23:29:07.599Z,3.60
2023-04-21T23:31:34.351Z,4.13
2023-04-21T23:34:00.791Z,3.10
2023-04-21T23:36:27.440Z,3.47
2023-04-21T23:38:54.128Z,3.27
2023-04-21T23:41:21.337Z,3.23
2023-04-21T23:43:47.894Z,3.70
2023-04-21T23:46:15.094Z,3.47
2023-04-21T23:48:41.618Z,3.20
2023-04-21T23:51:08.177Z,3.70
2023-04-21T23:53:34.891Z,3.90
2023-04-21T23:56:01.353Z,3.20
2023-04-21T23:58:28.098Z,2.70
